createdAt,value
2019-02-22T00:01:28.277Z,102382.68
2019-02-22T00:03:58.053Z,102384.43
2019-02-22T00:06:27.386Z,102378.92
2019-02-22T00:08:56.681Z,102382.44
2019-02-22T00:11:26.051Z,102375.25
2019-02-22T00:13:55.699Z,102375.42
2019-02-22T00:16:25.017Z,102374.59
2019-02-22T00:18:54.595Z,102382.15
2019-02-22T00:21:23.900Z,102387.15
2019-02-22T00:23:53.227Z,102377.14
2019-02-22T00:26:22.567Z,102387.25
2019-02-22T00:28:51.880Z,102390.64
2019-02-22T00:31:21.265Z,102393.03
2019-02-22T00:33:52.581Z,102398.21
2019-02-22T00:36:21.985Z,102397.22
2019-02-22T00:38:51.286Z,102403.77
2019-02-22T00:41:20.585Z,102398.69
2019-02-22T00:43:49.990Z,102399.80
2019-02-22T00:46:19.364Z,102403.88
2019-02-22T00:48:48.681Z,102402.77
2019-02-22T00:51:18.014Z,102409.37
2019-02-22T00:53:47.351Z,102411.80
2019-02-22T00:56:16.683Z,102415.22
2019-02-22T00:58:46.010Z,102418.52
2019-02-22T01:01:15.337Z,102420.41
2019-02-22T01:03:44.665Z,102428.85
2019-02-22T01:06:13.982Z,102429.00
2019-02-22T01:08:43.591Z,102433.69
2019-02-22T01:11:12.920Z,102430.39
2019-02-22T01:13:42.265Z,102430.77
2019-02-22T01:16:11.736Z,102436.46
2019-02-22T01:18:41.054Z,102437.81
2019-02-22T01:21:10.461Z,102436.65
2019-02-22T01:23:39.780Z,102435.30
2019-02-22T01:26:09.106Z,102437.95
2019-02-22T01:28:38.395Z,102436.84
2019-02-22T01:31:07.721Z,102444.91
2019-02-22T01:33:37.046Z,102433.41
2019-02-22T01:36:06.354Z,102442.45
2019-02-22T01:38:35.681Z,102436.64
2019-02-22T01:41:04.981Z,102441.85
2019-02-22T01:43:34.395Z,102437.58
2019-02-22T01:46:03.943Z,102442.38
2019-02-22T01:48:33.398Z,102438.07
2019-02-22T01:51:02.726Z,102436.60
2019-02-22T01:53:32.030Z,102390.92
2019-02-22T01:56:01.793Z,102437.20
2019-02-22T01:58:31.097Z,102439.91
2019-02-22T02:01:00.863Z,102443.25
2019-02-22T02:03:30.175Z,102442.91
2019-02-22T02:05:59.584Z,102440.08
2019-02-22T02:08:28.882Z,102448.20
2019-02-22T02:10:58.215Z,102433.39
2019-02-22T02:13:27.512Z,102436.34
2019-02-22T02:15:56.922Z,102438.27
2019-02-22T02:18:26.220Z,102431.39
2019-02-22T02:20:55.649Z,102431.20
2019-02-22T02:23:25.007Z,102447.11
2019-02-22T02:25:54.330Z,102449.34
2019-02-22T02:28:23.658Z,102450.52
2019-02-22T02:30:52.986Z,102458.89
2019-02-22T02:33:22.273Z,102453.72
2019-02-22T02:35:51.597Z,102458.79
2019-02-22T02:38:20.933Z,102453.76
2019-02-22T02:40:50.226Z,102455.16
2019-02-22T02:43:19.556Z,102458.48
2019-02-22T02:45:48.919Z,102454.20
2019-02-22T02:48:18.272Z,102457.65
2019-02-22T02:50:47.596Z,102462.38
2019-02-22T02:53:16.898Z,102468.66
2019-02-22T02:55:46.220Z,102461.62
2019-02-22T02:58:15.845Z,102457.49
2019-02-22T03:00:45.167Z,102459.91
2019-02-22T03:03:14.867Z,102466.38
2019-02-22T03:06:03.833Z,102460.45
2019-02-22T03:08:35.093Z,102462.27
2019-02-22T03:11:04.411Z,102465.06
2019-02-22T03:13:34.106Z,102470.54
2019-02-22T03:16:03.508Z,102468.69
2019-02-22T03:18:32.886Z,102472.58
2019-02-22T03:21:02.229Z,102479.05
2019-02-22T03:23:31.558Z,102480.59
2019-02-22T03:26:00.871Z,102484.22
2019-02-22T03:28:30.157Z,102483.69
2019-02-22T03:30:59.526Z,102483.01
2019-02-22T03:33:28.968Z,102485.05
2019-02-22T03:35:58.439Z,102483.01
2019-02-22T03:38:27.761Z,102488.53
2019-02-22T03:40:57.246Z,102486.75
2019-02-22T03:43:26.593Z,102495.94
2019-02-22T03:45:55.871Z,102492.22
2019-02-22T03:48:25.174Z,102491.37
2019-02-22T03:50:54.469Z,102492.01
2019-02-22T03:53:25.635Z,102502.85
2019-02-22T03:55:54.925Z,102503.77
2019-02-22T03:58:24.249Z,102502.75
2019-02-22T04:00:53.542Z,102503.66
2019-02-22T04:03:23.400Z,102500.78
2019-02-22T04:05:52.730Z,102502.78
2019-02-22T04:08:22.249Z,102506.98
2019-02-22T04:10:51.662Z,102514.23
2019-02-22T04:13:20.958Z,102512.58
2019-02-22T04:15:50.278Z,102511.28
2019-02-22T04:18:19.601Z,102511.70
2019-02-22T04:20:48.896Z,102509.41
2019-02-22T04:23:18.186Z,102516.02
2019-02-22T04:25:47.512Z,102516.52
2019-02-22T04:28:16.826Z,102515.83
2019-02-22T04:30:46.168Z,102510.19
2019-02-22T04:33:15.819Z,102517.23
2019-02-22T04:35:45.139Z,102522.52
2019-02-22T04:38:14.955Z,102523.88
2019-02-22T04:40:44.262Z,102530.49
2019-02-22T04:43:13.585Z,102530.77
2019-02-22T04:45:42.890Z,102530.46
2019-02-22T04:48:12.218Z,102537.08
2019-02-22T04:50:41.549Z,102538.00
2019-02-22T04:53:11.109Z,102545.56
2019-02-22T04:55:40.499Z,102545.12
2019-02-22T04:58:09.825Z,102544.64
2019-02-22T05:00:39.161Z,102547.67
2019-02-22T05:03:08.490Z,102546.27
2019-02-22T05:05:37.835Z,102547.09
2019-02-22T05:08:07.127Z,102545.20
2019-02-22T05:10:36.465Z,102546.98
2019-02-22T05:13:05.777Z,102552.86
2019-02-22T05:15:35.104Z,102549.42
2019-02-22T05:18:04.393Z,102552.22
2019-02-22T05:20:33.737Z,102564.97
2019-02-22T05:23:05.302Z,102566.14
2019-02-22T05:25:35.724Z,102566.23
2019-02-22T05:28:05.035Z,102568.99
2019-02-22T05:30:36.523Z,102571.69
2019-02-22T05:33:05.430Z,102567.44
2019-02-22T05:35:34.884Z,102533.52
2019-02-22T05:38:04.273Z,102574.35
2019-02-22T05:40:33.946Z,102575.60
2019-02-22T05:43:03.258Z,102570.05
2019-02-22T05:45:32.564Z,102571.83
2019-02-22T05:48:01.915Z,102571.70
2019-02-22T05:50:31.235Z,102570.87
2019-02-22T05:53:00.556Z,102580.20
2019-02-22T05:55:29.849Z,102570.23
2019-02-22T05:57:59.173Z,102577.66
2019-02-22T06:00:28.457Z,102578.90
2019-02-22T06:02:57.786Z,102592.80
2019-02-22T06:05:27.101Z,102598.92
2019-02-22T06:07:56.406Z,102604.65
2019-02-22T06:10:25.729Z,102604.59
2019-02-22T06:12:55.061Z,102614.99
2019-02-22T06:15:24.438Z,102614.54
2019-02-22T06:17:53.765Z,102615.81
2019-02-22T06:20:23.113Z,102620.03
2019-02-22T06:22:52.427Z,102623.18
2019-02-22T06:25:21.719Z,102626.59
2019-02-22T06:27:51.257Z,102631.80
2019-02-22T06:30:20.558Z,102635.89
2019-02-22T06:32:49.893Z,102641.80
2019-02-22T06:35:19.191Z,102642.08
2019-02-22T06:37:48.525Z,102644.66
2019-02-22T06:40:17.847Z,102652.23
2019-02-22T06:42:47.146Z,102656.37
2019-02-22T06:45:16.470Z,102655.22
2019-02-22T06:47:45.798Z,102662.94
2019-02-22T06:50:15.115Z,102662.58
2019-02-22T06:52:44.415Z,102660.78
2019-02-22T06:55:13.740Z,102661.23
2019-02-22T06:57:43.052Z,102653.93
2019-02-22T07:00:13.509Z,102664.64
2019-02-22T07:02:42.840Z,102666.91
2019-02-22T07:05:12.198Z,102661.43
2019-02-22T07:07:41.500Z,102676.03
2019-02-22T07:10:11.400Z,102674.83
2019-02-22T07:12:42.510Z,102678.67
2019-02-22T07:15:11.803Z,102678.66
2019-02-22T07:17:41.306Z,102685.56
2019-02-22T07:20:11.573Z,102681.59
2019-02-22T07:22:40.903Z,102682.09
2019-02-22T07:25:12.033Z,102687.13
2019-02-22T07:27:41.346Z,102684.97
2019-02-22T07:30:11.932Z,102685.88
2019-02-22T07:32:41.307Z,102686.12
2019-02-22T07:35:13.876Z,102687.78
2019-02-22T07:37:41.838Z,102694.59
2019-02-22T07:40:11.157Z,102691.14
2019-02-22T07:42:40.463Z,102708.71
2019-02-22T07:45:11.348Z,102711.98
2019-02-22T07:47:40.664Z,102718.12
2019-02-22T07:50:10.935Z,102725.67
2019-02-22T07:52:40.253Z,102725.43
2019-02-22T07:55:10.822Z,102727.45
2019-02-22T07:57:40.415Z,102728.00
2019-02-22T08:00:12.921Z,102730.78
2019-02-22T08:02:42.375Z,102737.12
2019-02-22T08:05:11.763Z,102734.23
2019-02-22T08:07:41.064Z,102745.58
2019-02-22T08:10:10.500Z,102742.13
2019-02-22T08:12:39.823Z,102741.30
2019-02-22T08:15:10.850Z,102750.95
2019-02-22T08:17:40.200Z,102758.50
2019-02-22T08:20:10.132Z,102758.95
2019-02-22T08:22:39.453Z,102764.03
2019-02-22T08:25:08.820Z,102767.30
2019-02-22T08:27:40.327Z,102766.59
2019-02-22T08:30:11.214Z,102773.67
2019-02-22T08:32:40.533Z,102774.86
2019-02-22T08:35:09.854Z,102773.59
2019-02-22T08:37:39.160Z,102775.05
2019-02-22T08:40:10.514Z,102774.42
2019-02-22T08:42:39.844Z,102776.88
2019-02-22T08:45:10.785Z,102778.91
2019-02-22T08:47:40.095Z,102779.22
2019-02-22T08:50:09.525Z,102792.52
2019-02-22T08:52:38.889Z,102801.84
2019-02-22T08:55:08.281Z,102805.33
2019-02-22T08:57:37.794Z,102805.08
2019-02-22T09:00:10.395Z,102815.53
2019-02-22T09:02:39.771Z,102815.33
2019-02-22T09:05:10.011Z,102823.48
2019-02-22T09:07:39.396Z,102825.57
2019-02-22T09:10:11.242Z,102825.38
2019-02-22T09:12:40.625Z,102829.08
2019-02-22T09:15:10.873Z,102782.80
2019-02-22T09:17:40.432Z,102822.52
2019-02-22T09:20:11.762Z,102831.84
2019-02-22T09:22:41.231Z,102838.16
2019-02-22T09:25:10.712Z,102797.48
2019-02-22T09:27:40.130Z,102842.58
2019-02-22T09:30:12.146Z,102849.82
2019-02-22T09:32:41.634Z,102854.32
2019-02-22T09:35:12.104Z,102852.85
2019-02-22T09:37:41.719Z,102863.76
2019-02-22T09:40:14.629Z,102861.69
2019-02-22T09:42:43.478Z,102862.77
2019-02-22T09:45:13.558Z,102859.94
2019-02-22T09:47:43.114Z,102861.47
2019-02-22T09:50:14.867Z,102868.86
2019-02-22T09:52:44.188Z,102869.88
2019-02-22T09:55:13.968Z,102865.72
2019-02-22T09:57:43.373Z,102862.75
2019-02-22T10:00:14.514Z,102861.59
2019-02-22T10:02:44.962Z,102862.58
2019-02-22T10:05:14.869Z,102857.77
2019-02-22T10:07:44.364Z,102860.87
2019-02-22T10:10:13.744Z,102858.96
2019-02-22T10:12:43.283Z,102859.26
2019-02-22T10:15:12.661Z,102856.94
2019-02-22T10:17:41.994Z,102850.80
2019-02-22T10:20:11.957Z,102863.55
2019-02-22T10:22:41.315Z,102860.04
2019-02-22T10:25:10.631Z,102859.67
2019-02-22T10:27:39.961Z,102867.45
2019-02-22T10:30:11.823Z,102860.16
2019-02-22T10:32:41.166Z,102853.99
2019-02-22T10:35:10.527Z,102855.44
2019-02-22T10:37:39.942Z,102860.39
2019-02-22T10:40:10.481Z,102862.30
2019-02-22T10:42:39.798Z,102864.08
2019-02-22T10:45:10.835Z,102872.64
2019-02-22T10:47:40.189Z,102876.17
2019-02-22T10:50:10.115Z,102877.68
2019-02-22T10:52:39.432Z,102878.70
2019-02-22T10:55:11.568Z,102878.27
2019-02-22T10:57:40.966Z,102887.84
2019-02-22T11:00:15.503Z,102881.20
2019-02-22T11:02:44.839Z,102887.28
2019-02-22T11:05:14.379Z,102883.04
2019-02-22T11:07:43.694Z,102888.81
2019-02-22T11:10:14.567Z,102880.78
2019-02-22T11:12:44.262Z,102880.54
2019-02-22T11:15:14.229Z,102881.09
2019-02-22T11:17:43.564Z,102874.91
2019-02-22T11:20:12.892Z,102882.33
2019-02-22T11:22:42.211Z,102874.92
2019-02-22T11:25:15.933Z,102879.02
2019-02-22T11:27:45.243Z,102882.00
2019-02-22T11:30:17.907Z,102883.37
2019-02-22T11:32:47.197Z,102885.57
2019-02-22T11:35:16.519Z,102883.48
2019-02-22T11:37:45.850Z,102883.48
2019-02-22T11:40:15.243Z,102879.52
2019-02-22T11:42:44.537Z,102878.69
2019-02-22T11:45:14.131Z,102884.91
2019-02-22T11:47:43.461Z,102877.22
2019-02-22T11:50:13.520Z,102870.91
2019-02-22T11:52:42.854Z,102866.68
2019-02-22T11:55:12.716Z,102861.14
2019-02-22T11:57:42.038Z,102862.01
2019-02-22T12:00:15.336Z,102874.09
2019-02-22T12:02:45.738Z,102868.62
2019-02-22T12:05:15.680Z,102874.41
2019-02-22T12:07:45.080Z,102880.89
2019-02-22T12:10:14.954Z,102874.31
2019-02-22T12:12:44.259Z,102870.80
2019-02-22T12:15:14.853Z,102871.20
2019-02-22T12:17:44.158Z,102877.30
2019-02-22T12:20:13.620Z,102875.09
2019-02-22T12:22:43.256Z,102876.86
2019-02-22T12:25:13.319Z,102877.09
2019-02-22T12:27:42.663Z,102880.13
2019-02-22T12:30:16.457Z,102884.70
2019-02-22T12:32:45.876Z,102894.00
2019-02-22T12:35:15.294Z,102886.16
2019-02-22T12:37:44.604Z,102886.70
2019-02-22T12:40:13.992Z,102882.91
2019-02-22T12:42:43.292Z,102884.83
2019-02-22T12:45:13.555Z,102888.89
2019-02-22T12:47:43.154Z,102885.48
2019-02-22T12:50:13.823Z,102885.21
2019-02-22T12:52:43.153Z,102890.47
2019-02-22T12:55:12.570Z,102883.84
2019-02-22T12:57:41.882Z,102882.95
2019-02-22T13:00:16.740Z,102881.81
2019-02-22T13:02:46.133Z,102890.40
2019-02-22T13:05:18.143Z,102902.00
2019-02-22T13:07:47.478Z,102905.47
2019-02-22T13:10:16.834Z,102908.56
2019-02-22T13:12:46.168Z,102905.98
2019-02-22T13:15:15.469Z,102912.12
2019-02-22T13:17:44.831Z,102908.44
2019-02-22T13:20:14.277Z,102906.59
2019-02-22T13:22:43.584Z,102903.23
2019-02-22T13:25:12.885Z,102912.38
2019-02-22T13:27:42.197Z,102907.20
2019-02-22T13:30:17.411Z,102893.98
2019-02-22T13:32:47.006Z,102890.36
2019-02-22T13:35:16.478Z,102892.05
2019-02-22T13:37:45.792Z,102881.38
2019-02-22T13:40:18.826Z,102888.23
2019-02-22T13:42:48.205Z,102888.61
2019-02-22T13:45:26.210Z,102883.47
2019-02-22T13:47:48.613Z,102880.95
2019-02-22T13:50:19.145Z,102889.81
2019-02-22T13:52:49.501Z,102881.72
2019-02-22T13:55:18.822Z,102890.84
2019-02-22T13:57:48.118Z,102899.92
2019-02-22T14:00:18.969Z,102892.93
2019-02-22T14:02:48.312Z,102892.23
2019-02-22T14:05:17.753Z,102904.20
2019-02-22T14:07:57.323Z,102901.87
2019-02-22T14:10:26.883Z,102893.12
2019-02-22T14:12:56.194Z,102894.33
2019-02-22T14:15:37.055Z,102896.66
2019-02-22T14:17:56.483Z,102902.84
2019-02-22T14:20:25.808Z,102896.42
2019-02-22T14:22:55.083Z,102904.75
2019-02-22T14:25:24.521Z,102905.75
2019-02-22T14:27:53.819Z,102898.54
2019-02-22T14:30:23.133Z,102900.47
2019-02-22T14:32:52.419Z,102899.59
2019-02-22T14:35:21.727Z,102891.88
2019-02-22T14:37:51.024Z,102899.03
2019-02-22T14:40:20.317Z,102894.30
2019-02-22T14:42:49.619Z,102892.89
2019-02-22T14:45:18.919Z,102887.38
2019-02-22T14:47:48.193Z,102882.39
2019-02-22T14:50:18.623Z,102889.41
2019-02-22T14:52:47.944Z,102897.59
2019-02-22T14:55:17.370Z,102888.46
2019-02-22T14:57:46.650Z,102895.56
2019-02-22T15:00:19.951Z,102896.72
2019-02-22T15:02:49.334Z,102894.63
2019-02-22T15:05:18.752Z,102894.39
2019-02-22T15:07:48.244Z,102894.39
2019-02-22T15:10:18.791Z,102891.73
2019-02-22T15:12:48.482Z,102895.88
2019-02-22T15:15:21.037Z,102897.95
2019-02-22T15:17:54.673Z,102894.13
2019-02-22T15:20:23.962Z,102898.97
2019-02-22T15:22:53.252Z,102898.31
2019-02-22T15:25:22.599Z,102889.72
2019-02-22T15:27:51.907Z,102902.22
2019-02-22T15:30:21.320Z,102903.69
2019-02-22T15:32:50.613Z,102901.19
2019-02-22T15:35:19.948Z,102904.69
2019-02-22T15:37:49.253Z,102904.25
2019-02-22T15:40:18.641Z,102905.70
2019-02-22T15:42:48.148Z,102896.08
2019-02-22T15:45:19.306Z,102891.71
2019-02-22T15:47:49.111Z,102895.92
2019-02-22T15:50:19.531Z,102901.77
2019-02-22T15:52:50.206Z,102904.78
2019-02-22T15:55:19.586Z,102891.44
2019-02-22T15:57:48.862Z,102903.22
2019-02-22T16:00:27.253Z,102906.84
2019-02-22T16:02:56.528Z,102909.13
2019-02-22T16:05:27.653Z,102907.11
2019-02-22T16:07:57.215Z,102911.83
2019-02-22T16:10:26.679Z,102918.03
2019-02-22T16:12:56.130Z,102912.14
2019-02-22T16:15:25.439Z,102910.99
2019-02-22T16:17:54.825Z,102905.69
2019-02-22T16:20:24.136Z,102910.62
2019-02-22T16:22:53.507Z,102914.63
2019-02-22T16:25:23.081Z,102915.40
2019-02-22T16:27:52.426Z,102914.73
2019-02-22T16:30:23.589Z,102921.64
2019-02-22T16:32:52.949Z,102910.54
2019-02-22T16:35:22.402Z,102914.16
2019-02-22T16:37:51.678Z,102915.19
2019-02-22T16:40:20.999Z,102913.94
2019-02-22T16:42:50.286Z,102909.86
2019-02-22T16:45:19.728Z,102911.84
2019-02-22T16:47:49.022Z,102919.67
2019-02-22T16:50:18.514Z,102921.95
2019-02-22T16:52:48.094Z,102919.27
2019-02-22T16:55:18.124Z,102916.42
2019-02-22T16:57:47.430Z,102917.63
2019-02-22T17:00:17.758Z,102919.00
2019-02-22T17:02:47.131Z,102925.77
2019-02-22T17:05:17.561Z,102926.20
2019-02-22T17:07:47.143Z,102921.34
2019-02-22T17:10:16.802Z,102921.57
2019-02-22T17:12:46.341Z,102924.59
2019-02-22T17:15:15.721Z,102928.23
2019-02-22T17:17:48.096Z,102930.23
2019-02-22T17:20:17.539Z,102942.98
2019-02-22T17:22:47.149Z,102940.53
2019-02-22T17:25:23.527Z,102943.70
2019-02-22T17:27:53.008Z,102951.48
2019-02-22T17:30:24.363Z,102956.25
2019-02-22T17:32:53.841Z,102954.48
2019-02-22T17:35:23.282Z,102961.03
2019-02-22T17:37:52.557Z,102960.89
2019-02-22T17:40:28.053Z,102967.67
2019-02-22T17:42:57.347Z,102964.31
2019-02-22T17:45:26.687Z,102965.25
2019-02-22T17:47:56.560Z,102974.44
2019-02-22T17:50:25.901Z,102979.88
2019-02-22T17:52:55.304Z,102985.05
2019-02-22T17:55:25.114Z,102988.38
2019-02-22T17:57:54.669Z,102987.69
2019-02-22T18:00:25.724Z,103001.08
2019-02-22T18:02:55.055Z,102995.23
2019-02-22T18:05:24.910Z,102999.77
2019-02-22T18:07:54.214Z,102969.70
2019-02-22T18:10:23.742Z,103001.38
2019-02-22T18:12:53.056Z,103004.43
2019-02-22T18:15:22.549Z,103010.66
2019-02-22T18:17:51.888Z,103013.95
2019-02-22T18:20:21.207Z,103010.59
2019-02-22T18:22:52.884Z,103002.84
2019-02-22T18:25:22.255Z,103004.91
2019-02-22T18:27:51.900Z,102999.59
2019-02-22T18:30:23.271Z,102998.66
2019-02-22T18:32:52.608Z,102996.08
2019-02-22T18:35:21.929Z,103003.75
2019-02-22T18:37:51.254Z,103000.61
2019-02-22T18:40:22.302Z,103005.51
2019-02-22T18:42:51.704Z,102999.92
2019-02-22T18:45:21.248Z,103003.72
2019-02-22T18:47:50.877Z,103002.89
2019-02-22T18:50:20.403Z,103011.98
2019-02-22T18:52:49.689Z,103025.78
2019-02-22T18:55:20.059Z,103027.55
2019-02-22T18:57:49.438Z,103033.05
2019-02-22T19:00:20.615Z,103029.66
2019-02-22T19:02:50.041Z,103023.36
2019-02-22T19:05:19.417Z,103027.52
2019-02-22T19:07:48.758Z,103028.16
2019-02-22T19:10:19.170Z,103035.16
2019-02-22T19:12:48.478Z,103041.27
2019-02-22T19:15:17.783Z,103043.70
2019-02-22T19:17:47.219Z,103047.88
2019-02-22T19:20:20.673Z,103047.16
2019-02-22T19:22:49.952Z,103051.89
2019-02-22T19:25:19.268Z,103050.40
2019-02-22T19:27:48.646Z,103049.16
2019-02-22T19:30:23.059Z,103041.22
2019-02-22T19:32:52.367Z,103045.70
2019-02-22T19:35:23.294Z,103047.13
2019-02-22T19:37:52.625Z,103048.03
2019-02-22T19:40:24.099Z,103038.06
2019-02-22T19:42:53.976Z,103045.53
2019-02-22T19:45:23.366Z,103041.91
2019-02-22T19:47:52.837Z,103036.09
2019-02-22T19:50:22.421Z,103037.47
2019-02-22T19:52:51.954Z,103037.13
2019-02-22T19:55:21.287Z,103041.64
2019-02-22T19:57:50.596Z,103041.65
2019-02-22T20:00:20.254Z,103045.62
2019-02-22T20:02:49.638Z,103042.88
2019-02-22T20:05:19.477Z,103042.81
2019-02-22T20:07:48.873Z,103038.47
2019-02-22T20:10:23.030Z,103039.78
2019-02-22T20:12:52.736Z,103045.56
2019-02-22T20:15:22.165Z,103047.63
2019-02-22T20:17:54.599Z,103043.63
2019-02-22T20:20:22.749Z,103051.44
2019-02-22T20:22:52.074Z,103050.12
2019-02-22T20:25:21.711Z,103062.88
2019-02-22T20:27:51.107Z,103064.75
2019-02-22T20:30:20.843Z,103073.00
2019-02-22T20:32:50.241Z,103072.90
2019-02-22T20:35:27.526Z,103063.34
2019-02-22T20:37:57.175Z,103065.51
2019-02-22T20:40:27.165Z,103070.16
2019-02-22T20:42:56.795Z,103069.86
2019-02-22T20:45:26.307Z,103067.84
2019-02-22T20:48:04.740Z,103064.24
2019-02-22T20:50:26.696Z,103061.67
2019-02-22T20:52:56.218Z,103059.78
2019-02-22T20:55:25.690Z,103067.69
2019-02-22T20:57:55.009Z,103075.98
2019-02-22T21:00:26.546Z,103090.97
2019-02-22T21:02:55.917Z,103078.20
2019-02-22T21:05:25.360Z,103063.80
2019-02-22T21:07:54.782Z,103071.52
2019-02-22T21:10:24.360Z,103080.00
2019-02-22T21:12:53.953Z,103087.72
2019-02-22T21:15:23.408Z,103082.88
2019-02-22T21:17:52.855Z,103082.65
2019-02-22T21:20:23.126Z,103078.80
2019-02-22T21:22:52.697Z,103084.96
2019-02-22T21:25:22.012Z,103085.47
2019-02-22T21:27:51.476Z,103082.53
2019-02-22T21:30:21.233Z,103092.69
2019-02-22T21:32:50.777Z,103095.30
2019-02-22T21:35:20.465Z,103090.34
2019-02-22T21:37:49.964Z,103084.48
2019-02-22T21:40:19.335Z,103092.08
2019-02-22T21:42:48.886Z,103099.83
2019-02-22T21:45:18.205Z,103098.95
2019-02-22T21:47:54.882Z,103095.06
2019-02-22T21:50:18.691Z,103098.41
2019-02-22T21:52:48.631Z,103103.99
2019-02-22T21:55:17.979Z,103103.52
2019-02-22T21:57:47.346Z,103121.17
2019-02-22T22:00:21.585Z,103120.55
2019-02-22T22:02:52.489Z,103119.03
2019-02-22T22:05:22.346Z,103115.66
2019-02-22T22:07:51.670Z,103119.19
2019-02-22T22:10:22.555Z,103119.19
2019-02-22T22:12:51.873Z,103123.58
2019-02-22T22:15:21.171Z,103123.78
2019-02-22T22:17:50.827Z,103122.27
2019-02-22T22:20:20.137Z,103125.58
2019-02-22T22:22:49.818Z,103134.01
2019-02-22T22:25:19.343Z,103137.63
2019-02-22T22:27:48.774Z,103126.62
2019-02-22T22:30:18.249Z,103123.58
2019-02-22T22:32:48.196Z,103127.69
2019-02-22T22:35:18.088Z,103129.06
2019-02-22T22:37:47.413Z,103127.41
2019-02-22T22:40:16.781Z,103125.45
2019-02-22T22:42:46.509Z,103122.86
2019-02-22T22:45:16.905Z,103124.85
2019-02-22T22:47:46.299Z,103125.25
2019-02-22T22:50:16.930Z,103133.85
2019-02-22T22:52:46.255Z,103128.23
2019-02-22T22:55:15.560Z,103126.03
2019-02-22T22:57:44.871Z,103127.77
2019-02-22T23:00:27.576Z,103127.81
2019-02-22T23:02:57.044Z,103132.52
2019-02-22T23:05:26.535Z,103131.61
2019-02-22T23:07:55.899Z,103132.43
2019-02-22T23:10:25.207Z,103139.52
2019-02-22T23:12:54.600Z,103135.70
2019-02-22T23:15:23.887Z,103137.28
2019-02-22T23:17:53.478Z,103140.75
2019-02-22T23:20:22.909Z,103138.33
2019-02-22T23:22:52.777Z,103140.05
2019-02-22T23:25:22.195Z,103138.67
2019-02-22T23:27:51.472Z,103145.84
2019-02-22T23:30:20.979Z,103152.04
2019-02-22T23:32:50.267Z,103152.04
2019-02-22T23:35:19.958Z,103148.09
2019-02-22T23:37:49.266Z,103149.05
2019-02-22T23:40:18.574Z,103156.45
2019-02-22T23:42:47.871Z,103148.14
2019-02-22T23:45:17.194Z,103151.34
2019-02-22T23:47:46.491Z,103162.67
2019-02-22T23:50:15.870Z,103157.84
2019-02-22T23:52:45.180Z,103156.09
2019-02-22T23:55:14.485Z,103156.49
2019-02-22T23:57:43.771Z,103153.36
